createdAt,value
2023-08-29T00:01:45.555Z,38.52
2023-08-29T00:04:13.112Z,38.94
2023-08-29T00:06:40.560Z,38.94
2023-08-29T00:09:09.466Z,38.97
2023-08-29T00:11:36.962Z,38.44
2023-08-29T00:14:04.421Z,39.20
2023-08-29T00:16:31.952Z,39.16
2023-08-29T00:18:59.461Z,38.99
2023-08-29T00:21:26.913Z,39.16
2023-08-29T00:23:54.343Z,38.82
2023-08-29T00:26:23.366Z,38.92
2023-08-29T00:28:52.638Z,39.21
2023-08-29T00:31:20.146Z,39.21
2023-08-29T00:33:47.589Z,38.32
2023-08-29T00:36:15.032Z,39.00
2023-08-29T00:38:42.600Z,39.20
2023-08-29T00:41:10.096Z,38.98
2023-08-29T00:43:39.138Z,38.54
2023-08-29T00:46:07.038Z,39.40
2023-08-29T00:48:35.625Z,39.48
2023-08-29T00:51:03.109Z,39.54
2023-08-29T00:53:30.784Z,39.74
2023-08-29T00:55:58.483Z,39.75
2023-08-29T00:58:26.000Z,39.60
2023-08-29T01:00:56.398Z,39.46
2023-08-29T01:03:24.196Z,39.34
2023-08-29T01:05:51.696Z,39.37
2023-08-29T01:08:19.278Z,39.12
2023-08-29T01:10:53.471Z,40.09
2023-08-29T01:13:27.816Z,39.61
2023-08-29T01:16:01.990Z,39.07
2023-08-29T01:18:32.658Z,39.50
2023-08-29T01:21:06.161Z,39.04
2023-08-29T01:23:40.029Z,39.47
2023-08-29T01:26:14.725Z,39.28
2023-08-29T01:28:44.727Z,39.42
2023-08-29T01:31:12.497Z,39.82
2023-08-29T01:33:41.359Z,39.84
2023-08-29T01:36:09.186Z,39.88
2023-08-29T01:38:36.770Z,39.59
2023-08-29T01:41:04.755Z,39.89
2023-08-29T01:43:34.951Z,39.17
2023-08-29T01:46:02.585Z,39.59
2023-08-29T01:48:31.756Z,40.15
2023-08-29T01:50:59.571Z,39.32
2023-08-29T01:53:27.598Z,39.48
2023-08-29T01:55:56.552Z,39.06
2023-08-29T01:58:25.185Z,39.43
2023-08-29T02:00:54.493Z,39.29
2023-08-29T02:03:22.833Z,39.31
2023-08-29T02:05:50.338Z,39.43
2023-08-29T02:08:18.005Z,39.39
2023-08-29T02:10:45.483Z,39.67
2023-08-29T02:13:13.577Z,39.29
2023-08-29T02:15:41.036Z,39.41
2023-08-29T02:18:11.466Z,40.26
2023-08-29T02:20:39.312Z,39.77
2023-08-29T02:23:11.229Z,40.15
2023-08-29T02:25:38.690Z,40.30
2023-08-29T02:28:06.672Z,40.61
2023-08-29T02:30:36.457Z,39.52
2023-08-29T02:33:04.738Z,40.19
2023-08-29T02:35:33.672Z,39.93
2023-08-29T02:38:01.948Z,40.60
2023-08-29T02:40:33.339Z,40.71
2023-08-29T02:43:00.763Z,40.20
2023-08-29T02:45:29.636Z,39.71
2023-08-29T02:47:57.189Z,40.54
2023-08-29T02:50:25.216Z,40.71
2023-08-29T02:52:54.097Z,40.84
2023-08-29T02:55:21.656Z,40.27
2023-08-29T02:57:49.173Z,40.44
2023-08-29T03:00:17.456Z,40.58
2023-08-29T03:02:44.935Z,40.90
2023-08-29T03:05:12.514Z,40.86
2023-08-29T03:07:40.006Z,40.64
2023-08-29T03:10:09.949Z,40.94
2023-08-29T03:12:37.630Z,40.64
2023-08-29T03:15:05.787Z,40.61
2023-08-29T03:17:34.252Z,40.43
2023-08-29T03:20:02.686Z,41.27
2023-08-29T03:22:30.186Z,40.64
2023-08-29T03:24:57.620Z,40.81
2023-08-29T03:27:26.502Z,40.18
2023-08-29T03:29:53.986Z,40.48
2023-08-29T03:32:21.804Z,40.58
2023-08-29T03:34:52.888Z,40.37
2023-08-29T03:37:20.367Z,40.68
2023-08-29T03:39:47.943Z,40.35
2023-08-29T03:42:15.393Z,39.26
2023-08-29T03:44:44.350Z,40.27
2023-08-29T03:47:11.827Z,40.40
2023-08-29T03:49:39.852Z,39.71
2023-08-29T03:52:07.519Z,40.25
2023-08-29T03:54:35.617Z,41.26
2023-08-29T03:57:03.136Z,41.14
2023-08-29T03:59:31.391Z,39.86
2023-08-29T04:02:00.290Z,40.75
2023-08-29T04:04:28.015Z,41.22
2023-08-29T04:06:55.621Z,41.08
2023-08-29T04:09:23.117Z,41.38
2023-08-29T04:11:50.724Z,40.98
2023-08-29T04:14:18.229Z,41.87
2023-08-29T04:16:45.808Z,41.71
2023-08-29T04:19:14.811Z,41.96
2023-08-29T04:21:42.270Z,41.64
2023-08-29T04:24:10.960Z,41.61
2023-08-29T04:26:38.467Z,41.95
2023-08-29T04:29:06.005Z,42.34
2023-08-29T04:31:33.574Z,42.08
2023-08-29T04:34:01.113Z,41.64
2023-08-29T04:36:29.994Z,42.07
2023-08-29T04:38:57.488Z,42.76
2023-08-29T04:41:25.649Z,44.53
2023-08-29T04:43:53.095Z,43.04
2023-08-29T04:46:20.640Z,42.60
2023-08-29T04:48:48.137Z,42.83
2023-08-29T04:51:15.646Z,43.90
2023-08-29T04:53:44.631Z,42.55
2023-08-29T04:56:12.071Z,42.49
2023-08-29T04:58:39.577Z,42.68
2023-08-29T05:01:07.119Z,45.04
2023-08-29T05:03:35.214Z,45.03
2023-08-29T05:06:02.805Z,44.53
2023-08-29T05:08:31.795Z,44.64
2023-08-29T05:11:00.680Z,43.30
2023-08-29T05:13:28.298Z,43.14
2023-08-29T05:15:55.827Z,42.64
2023-08-29T05:18:24.243Z,42.80
2023-08-29T05:20:52.475Z,42.93
2023-08-29T05:23:21.613Z,42.79
2023-08-29T05:25:49.114Z,42.29
2023-08-29T05:28:18.156Z,42.02
2023-08-29T05:30:45.818Z,42.14
2023-08-29T05:33:13.959Z,42.33
2023-08-29T05:35:41.589Z,42.68
2023-08-29T05:38:09.202Z,42.30
2023-08-29T05:40:36.801Z,42.73
2023-08-29T05:43:04.559Z,42.95
2023-08-29T05:45:33.596Z,42.36
2023-08-29T05:48:01.169Z,42.19
2023-08-29T05:50:28.698Z,42.10
2023-08-29T05:52:56.390Z,44.80
2023-08-29T05:55:23.976Z,44.50
2023-08-29T05:57:51.490Z,42.72
2023-08-29T06:00:19.850Z,42.00
2023-08-29T06:02:48.864Z,42.13
2023-08-29T06:05:16.508Z,41.91
2023-08-29T06:07:44.810Z,42.74
2023-08-29T06:10:12.287Z,42.44
2023-08-29T06:12:39.962Z,42.02
2023-08-29T06:15:08.714Z,42.17
2023-08-29T06:17:36.187Z,42.55
2023-08-29T06:20:06.366Z,41.93
2023-08-29T06:22:34.037Z,41.95
2023-08-29T06:25:01.540Z,42.31
2023-08-29T06:27:29.049Z,41.84
2023-08-29T06:29:56.803Z,41.74
2023-08-29T06:32:24.356Z,41.84
2023-08-29T06:34:52.225Z,42.02
2023-08-29T06:37:21.457Z,42.07
2023-08-29T06:39:49.037Z,41.25
2023-08-29T06:42:16.567Z,41.69
2023-08-29T06:44:44.086Z,42.67
2023-08-29T06:47:11.522Z,42.18
2023-08-29T06:49:39.073Z,42.30
2023-08-29T06:52:07.011Z,42.41
2023-08-29T06:54:35.951Z,42.58
2023-08-29T06:57:03.521Z,42.77
2023-08-29T06:59:31.055Z,43.18
2023-08-29T07:01:58.636Z,42.69
2023-08-29T07:04:26.117Z,42.82
2023-08-29T07:06:54.890Z,42.51
2023-08-29T07:09:23.490Z,42.85
2023-08-29T07:11:52.362Z,42.76
2023-08-29T07:14:19.877Z,42.68
2023-08-29T07:17:00.109Z,43.23
2023-08-29T07:19:35.348Z,43.27
2023-08-29T07:22:03.270Z,43.44
2023-08-29T07:24:31.378Z,44.48
2023-08-29T07:27:00.311Z,44.36
2023-08-29T07:29:28.166Z,45.09
2023-08-29T07:31:55.673Z,46.32
2023-08-29T07:34:23.168Z,46.19
2023-08-29T07:36:50.781Z,45.55
2023-08-29T07:39:18.278Z,46.10
2023-08-29T07:41:45.838Z,45.88
2023-08-29T07:44:14.797Z,45.91
2023-08-29T07:46:50.194Z,45.99
2023-08-29T07:49:25.938Z,46.91
2023-08-29T07:51:53.388Z,46.58
2023-08-29T07:54:21.079Z,46.76
2023-08-29T07:56:49.184Z,47.29
2023-08-29T07:59:18.089Z,45.44
2023-08-29T08:01:45.607Z,45.47
2023-08-29T08:04:13.201Z,47.59
2023-08-29T08:06:40.720Z,47.49
2023-08-29T08:09:08.214Z,46.94
2023-08-29T08:11:35.664Z,47.69
2023-08-29T08:14:03.241Z,46.97
2023-08-29T08:16:32.151Z,45.07
2023-08-29T08:18:59.825Z,44.39
2023-08-29T08:21:27.370Z,44.34
2023-08-29T08:23:54.932Z,43.98
2023-08-29T08:26:23.018Z,43.54
2023-08-29T08:28:50.730Z,43.43
2023-08-29T08:31:18.227Z,43.18
2023-08-29T08:33:47.351Z,42.74
2023-08-29T08:36:14.910Z,43.61
2023-08-29T08:38:42.422Z,43.74
2023-08-29T08:41:11.723Z,43.85
2023-08-29T08:43:40.024Z,43.83
2023-08-29T08:46:08.731Z,43.99
2023-08-29T08:48:37.701Z,43.51
2023-08-29T08:51:07.264Z,43.84
2023-08-29T08:53:37.394Z,43.43
2023-08-29T08:56:05.603Z,43.27
2023-08-29T08:58:33.122Z,43.07
2023-08-29T09:01:00.677Z,42.92
2023-08-29T09:03:28.239Z,43.40
2023-08-29T09:05:56.267Z,43.35
2023-08-29T09:08:25.267Z,42.96
2023-08-29T09:10:53.504Z,43.50
2023-08-29T09:13:21.681Z,43.46
2023-08-29T09:15:49.335Z,43.28
2023-08-29T09:18:25.377Z,43.64
2023-08-29T09:20:53.674Z,43.35
2023-08-29T09:23:22.235Z,43.44
2023-08-29T09:25:58.404Z,43.25
2023-08-29T09:28:28.140Z,43.44
2023-08-29T09:30:55.264Z,43.25
2023-08-29T09:33:23.369Z,42.84
2023-08-29T09:35:51.234Z,42.36
2023-08-29T09:38:19.235Z,43.39
2023-08-29T09:40:49.572Z,44.08
2023-08-29T09:43:19.026Z,43.70
2023-08-29T09:45:50.391Z,44.07
2023-08-29T09:48:18.181Z,44.01
2023-08-29T09:50:46.783Z,43.72
2023-08-29T09:53:16.426Z,43.46
2023-08-29T09:55:45.122Z,44.03
2023-08-29T09:58:13.707Z,43.54
2023-08-29T10:00:42.741Z,43.59
2023-08-29T10:03:11.928Z,43.81
2023-08-29T10:05:42.337Z,44.04
2023-08-29T10:08:19.541Z,44.13
2023-08-29T10:10:48.657Z,44.71
2023-08-29T10:13:19.563Z,44.52
2023-08-29T10:15:49.505Z,43.36
2023-08-29T10:18:17.903Z,43.39
2023-08-29T10:20:46.996Z,43.67
2023-08-29T10:23:14.558Z,44.44
2023-08-29T10:25:43.141Z,44.27
2023-08-29T10:28:12.174Z,43.73
2023-08-29T10:30:44.254Z,43.86
2023-08-29T10:33:13.715Z,43.53
2023-08-29T10:35:41.406Z,43.26
2023-08-29T10:38:14.445Z,43.26
2023-08-29T10:40:44.352Z,43.84
2023-08-29T10:43:19.104Z,43.12
2023-08-29T10:45:51.265Z,42.71
2023-08-29T10:48:22.383Z,43.93
2023-08-29T10:51:09.796Z,43.67
2023-08-29T10:53:37.891Z,44.04
2023-08-29T10:56:07.673Z,44.03
2023-08-29T10:58:37.578Z,43.64
2023-08-29T11:01:05.259Z,44.72
2023-08-29T11:03:42.203Z,43.61
2023-08-29T11:06:10.017Z,43.16
2023-08-29T11:08:37.686Z,43.23
2023-08-29T11:11:16.506Z,42.89
2023-08-29T11:13:57.818Z,43.66
2023-08-29T11:16:26.313Z,43.85
2023-08-29T11:19:11.097Z,44.56
2023-08-29T11:21:39.572Z,44.84
2023-08-29T11:26:40.426Z,43.36
2023-08-29T11:29:08.545Z,44.14
2023-08-29T11:31:40.044Z,44.98
2023-08-29T11:34:14.864Z,45.20
2023-08-29T11:36:42.468Z,44.82
2023-08-29T11:39:09.941Z,44.14
2023-08-29T11:41:50.427Z,43.95
2023-08-29T11:44:57.064Z,43.76
2023-08-29T11:47:15.053Z,44.15
2023-08-29T11:49:44.340Z,44.07
2023-08-29T11:52:11.918Z,45.17
2023-08-29T11:54:41.153Z,45.03
2023-08-29T11:57:11.607Z,44.91
2023-08-29T11:59:40.973Z,43.24
2023-08-29T12:02:08.801Z,44.20
2023-08-29T12:04:40.472Z,45.20
2023-08-29T12:07:13.361Z,43.34
2023-08-29T12:09:41.902Z,43.57
2023-08-29T12:12:09.854Z,44.12
2023-08-29T12:14:50.534Z,44.10
2023-08-29T12:17:18.102Z,43.77
2023-08-29T12:19:45.700Z,44.86
2023-08-29T12:22:15.011Z,44.60
2023-08-29T12:24:42.488Z,43.83
2023-08-29T12:27:09.990Z,44.17
2023-08-29T12:29:37.501Z,44.34
2023-08-29T12:32:06.523Z,45.33
2023-08-29T12:34:33.999Z,44.45
2023-08-29T12:37:01.459Z,43.85
2023-08-29T12:39:30.342Z,44.31
2023-08-29T12:41:57.897Z,43.64
2023-08-29T12:44:25.320Z,44.47
2023-08-29T12:46:52.846Z,44.12
2023-08-29T12:49:20.668Z,43.60
2023-08-29T12:51:48.175Z,43.71
2023-08-29T12:54:15.694Z,44.39
2023-08-29T12:56:44.628Z,44.36
2023-08-29T12:59:12.626Z,45.81
2023-08-29T13:01:40.187Z,45.25
2023-08-29T13:04:07.801Z,44.97
2023-08-29T13:06:35.670Z,44.20
2023-08-29T13:09:03.190Z,43.49
2023-08-29T13:11:30.766Z,44.54
2023-08-29T13:13:59.751Z,44.71
2023-08-29T13:16:32.447Z,45.63
2023-08-29T13:19:00.026Z,44.78
2023-08-29T13:21:27.468Z,44.89
2023-08-29T13:23:54.940Z,44.62
2023-08-29T13:26:22.835Z,45.24
2023-08-29T13:28:50.455Z,46.44
2023-08-29T13:31:19.500Z,46.32
2023-08-29T13:33:47.070Z,46.74
2023-08-29T13:36:14.512Z,46.52
2023-08-29T13:38:42.016Z,45.54
2023-08-29T13:41:09.570Z,45.10
2023-08-29T13:43:37.096Z,45.75
2023-08-29T13:46:04.659Z,46.31
2023-08-29T13:48:33.713Z,46.03
2023-08-29T13:51:01.286Z,45.77
2023-08-29T13:53:29.132Z,46.15
2023-08-29T13:55:56.566Z,45.04
2023-08-29T13:58:24.021Z,46.17
2023-08-29T14:00:51.520Z,46.49
2023-08-29T14:03:33.230Z,47.26
2023-08-29T14:06:06.706Z,46.84
2023-08-29T14:08:34.286Z,46.73
2023-08-29T14:11:05.522Z,46.44
2023-08-29T14:13:34.904Z,46.81
2023-08-29T14:16:03.524Z,47.08
2023-08-29T14:18:31.125Z,47.01
2023-08-29T14:20:58.700Z,46.62
2023-08-29T14:23:27.749Z,45.87
2023-08-29T14:25:55.427Z,46.72
2023-08-29T14:28:22.918Z,46.29
2023-08-29T14:30:50.375Z,46.99
2023-08-29T14:33:17.847Z,46.34
2023-08-29T14:35:45.370Z,46.12
2023-08-29T14:38:12.851Z,46.29
2023-08-29T14:40:41.793Z,46.34
2023-08-29T14:43:09.343Z,46.35
2023-08-29T14:45:41.449Z,45.36
2023-08-29T14:48:09.306Z,45.53
2023-08-29T14:50:37.113Z,45.41
2023-08-29T14:53:04.999Z,45.92
2023-08-29T14:55:32.791Z,46.52
2023-08-29T14:58:01.810Z,46.61
2023-08-29T15:00:29.403Z,45.96
2023-08-29T15:02:56.896Z,46.79
2023-08-29T15:05:24.831Z,45.57
2023-08-29T15:07:52.314Z,45.47
2023-08-29T15:10:19.823Z,45.98
2023-08-29T15:12:47.305Z,45.49
2023-08-29T15:15:17.880Z,45.27
2023-08-29T15:17:47.504Z,46.33
2023-08-29T15:20:15.600Z,45.60
2023-08-29T15:22:43.298Z,45.87
2023-08-29T15:25:11.705Z,46.03
2023-08-29T15:27:40.209Z,46.02
2023-08-29T15:30:09.181Z,45.94
2023-08-29T15:32:39.239Z,44.94
2023-08-29T15:35:08.353Z,46.43
2023-08-29T15:37:35.990Z,44.94
2023-08-29T15:40:03.863Z,45.37
2023-08-29T15:42:32.167Z,45.83
2023-08-29T15:45:00.717Z,45.50
2023-08-29T15:47:28.442Z,45.31
2023-08-29T15:49:57.627Z,44.98
2023-08-29T15:52:25.205Z,45.67
2023-08-29T15:54:53.273Z,45.86
2023-08-29T15:57:20.773Z,45.99
2023-08-29T15:59:49.466Z,45.77
2023-08-29T16:02:18.026Z,46.08
2023-08-29T16:04:47.162Z,46.08
2023-08-29T16:07:17.180Z,46.30
2023-08-29T16:09:45.640Z,46.36
2023-08-29T16:12:13.797Z,45.69
2023-08-29T16:14:41.899Z,45.44
2023-08-29T16:17:09.446Z,45.61
2023-08-29T16:19:37.040Z,43.85
2023-08-29T16:22:06.051Z,44.33
2023-08-29T16:24:35.977Z,44.46
2023-08-29T16:27:04.596Z,45.13
2023-08-29T16:29:32.130Z,45.39
2023-08-29T16:31:59.591Z,45.44
2023-08-29T16:34:27.293Z,45.03
2023-08-29T16:36:54.722Z,44.97
2023-08-29T16:39:22.173Z,45.71
2023-08-29T16:41:51.242Z,45.48
2023-08-29T16:44:19.030Z,45.25
2023-08-29T16:46:46.646Z,45.17
2023-08-29T16:49:15.104Z,45.12
2023-08-29T16:51:43.147Z,45.07
2023-08-29T16:54:10.879Z,44.50
2023-08-29T16:56:39.007Z,44.92
2023-08-29T16:59:08.192Z,44.80
2023-08-29T17:01:36.213Z,44.87
2023-08-29T17:04:05.777Z,45.08
2023-08-29T17:06:34.199Z,45.17
2023-08-29T17:09:03.229Z,44.35
2023-08-29T17:11:30.997Z,44.63
2023-08-29T17:13:58.885Z,44.25
2023-08-29T17:16:27.775Z,43.91
2023-08-29T17:18:55.264Z,44.06
2023-08-29T17:21:22.767Z,44.29
2023-08-29T17:23:50.451Z,43.91
2023-08-29T17:26:17.883Z,43.73
2023-08-29T17:28:46.078Z,44.85
2023-08-29T17:31:15.955Z,44.31
2023-08-29T17:33:45.026Z,43.78
2023-08-29T17:36:14.286Z,43.71
2023-08-29T17:38:43.203Z,43.84
2023-08-29T17:41:10.817Z,44.16
2023-08-29T17:43:38.408Z,44.48
2023-08-29T17:46:06.432Z,43.86
2023-08-29T17:48:34.361Z,44.25
2023-08-29T17:51:03.243Z,44.07
2023-08-29T17:53:32.172Z,44.10
2023-08-29T17:56:00.413Z,43.87
2023-08-29T17:58:28.016Z,43.96
2023-08-29T18:00:55.825Z,43.57
2023-08-29T18:03:23.594Z,43.53
2023-08-29T18:05:53.574Z,43.79
2023-08-29T18:08:25.690Z,43.80
2023-08-29T18:10:54.414Z,43.84
2023-08-29T18:13:22.341Z,43.80
2023-08-29T18:15:50.033Z,44.09
2023-08-29T18:18:19.000Z,43.99
2023-08-29T18:20:48.037Z,43.64
2023-08-29T18:23:16.257Z,43.57
2023-08-29T18:25:45.836Z,43.50
2023-08-29T18:28:16.464Z,43.55
2023-08-29T18:30:44.564Z,43.70
2023-08-29T18:33:12.601Z,43.88
2023-08-29T18:35:40.751Z,43.60
2023-08-29T18:38:08.471Z,43.85
2023-08-29T18:40:36.369Z,43.68
2023-08-29T18:43:06.086Z,43.26
2023-08-29T18:45:34.170Z,43.63
2023-08-29T18:48:01.653Z,43.70
2023-08-29T18:50:29.185Z,43.63
2023-08-29T18:52:56.813Z,43.56
2023-08-29T18:55:24.530Z,43.22
2023-08-29T18:57:52.360Z,42.88
2023-08-29T19:00:21.269Z,42.96
2023-08-29T19:02:49.719Z,43.82
2023-08-29T19:05:17.288Z,44.50
2023-08-29T19:07:45.179Z,44.22
2023-08-29T19:10:12.905Z,44.94
2023-08-29T19:12:40.409Z,44.75
2023-08-29T19:15:08.768Z,44.75
2023-08-29T19:17:37.885Z,44.60
2023-08-29T19:20:06.398Z,44.99
2023-08-29T19:22:34.312Z,45.11
2023-08-29T19:25:02.027Z,44.85
2023-08-29T19:27:29.554Z,44.52
2023-08-29T19:29:57.156Z,44.76
2023-08-29T19:32:24.722Z,45.46
2023-08-29T19:34:53.740Z,44.73
2023-08-29T19:37:21.336Z,45.27
2023-08-29T19:39:48.900Z,45.67
2023-08-29T19:42:16.449Z,45.77
2023-08-29T19:44:43.970Z,45.85
2023-08-29T19:47:11.483Z,45.52
2023-08-29T19:49:39.826Z,46.16
2023-08-29T19:52:08.901Z,46.36
2023-08-29T19:54:36.568Z,46.26
2023-08-29T19:57:04.307Z,46.27
2023-08-29T19:59:32.088Z,46.86
2023-08-29T20:01:59.634Z,46.27
2023-08-29T20:04:27.147Z,46.58
2023-08-29T20:06:54.639Z,46.12
2023-08-29T20:09:23.674Z,46.48
2023-08-29T20:11:51.252Z,46.57
2023-08-29T20:14:18.710Z,46.25
2023-08-29T20:16:46.223Z,46.88
2023-08-29T20:19:13.723Z,46.35
2023-08-29T20:21:41.197Z,46.69
2023-08-29T20:24:09.043Z,46.66
2023-08-29T20:26:37.965Z,47.38
2023-08-29T20:29:05.587Z,47.00
2023-08-29T20:31:33.254Z,47.20
2023-08-29T20:34:00.956Z,47.65
2023-08-29T20:36:28.800Z,47.53
2023-08-29T20:38:56.283Z,47.57
2023-08-29T20:41:23.836Z,47.99
2023-08-29T20:43:52.903Z,48.41
2023-08-29T20:46:20.858Z,47.97
2023-08-29T20:48:48.313Z,48.42
2023-08-29T20:51:15.806Z,48.33
2023-08-29T20:53:43.569Z,48.66
2023-08-29T20:56:11.177Z,48.13
2023-08-29T20:58:39.700Z,48.70
2023-08-29T21:01:09.446Z,49.14
2023-08-29T21:03:37.291Z,49.17
2023-08-29T21:06:05.027Z,48.39
2023-08-29T21:08:32.542Z,49.10
2023-08-29T21:11:00.140Z,48.16
2023-08-29T21:13:27.662Z,48.30
2023-08-29T21:15:55.154Z,48.17
2023-08-29T21:18:24.005Z,48.05
2023-08-29T21:20:53.472Z,48.65
2023-08-29T21:23:20.919Z,48.11
2023-08-29T21:25:48.838Z,48.37
2023-08-29T21:28:17.621Z,47.77
2023-08-29T21:30:45.850Z,48.33
2023-08-29T21:33:14.150Z,48.42
2023-08-29T21:35:43.970Z,48.88
2023-08-29T21:38:12.520Z,48.50
2023-08-29T21:40:41.152Z,49.08
2023-08-29T21:43:10.289Z,48.63
2023-08-29T21:45:38.366Z,48.43
2023-08-29T21:48:07.599Z,48.69
2023-08-29T21:50:38.455Z,48.37
2023-08-29T21:53:09.150Z,49.80
2023-08-29T21:55:37.260Z,48.71
2023-08-29T21:58:06.086Z,49.26
2023-08-29T22:00:35.889Z,48.58
2023-08-29T22:03:03.753Z,48.96
2023-08-29T22:05:32.112Z,49.35
2023-08-29T22:08:00.273Z,49.95
2023-08-29T22:10:29.206Z,50.00
2023-08-29T22:12:56.631Z,49.79
2023-08-29T22:15:24.088Z,50.51
2023-08-29T22:17:51.582Z,49.63
2023-08-29T22:20:19.375Z,49.11
2023-08-29T22:22:46.881Z,49.46
2023-08-29T22:25:14.977Z,49.57
2023-08-29T22:27:43.996Z,50.31
2023-08-29T22:30:12.565Z,49.64
2023-08-29T22:32:40.479Z,50.01
2023-08-29T22:35:08.592Z,50.63
2023-08-29T22:37:36.127Z,50.61
2023-08-29T22:40:03.997Z,50.13
2023-08-29T22:42:31.517Z,49.75
2023-08-29T22:45:00.402Z,50.11
2023-08-29T22:47:28.299Z,49.93
2023-08-29T22:49:56.320Z,50.01
2023-08-29T22:52:24.331Z,50.54
2023-08-29T22:54:52.294Z,50.75
2023-08-29T22:57:19.752Z,50.48
2023-08-29T22:59:47.391Z,50.64
2023-08-29T23:02:16.381Z,50.78
2023-08-29T23:04:43.831Z,50.04
2023-08-29T23:07:11.830Z,50.73
2023-08-29T23:09:39.407Z,50.85
2023-08-29T23:12:07.518Z,50.36
2023-08-29T23:14:34.996Z,50.42
2023-08-29T23:17:02.507Z,50.45
2023-08-29T23:19:31.416Z,50.93
2023-08-29T23:21:58.913Z,51.02
2023-08-29T23:24:26.466Z,50.87
2023-08-29T23:26:53.895Z,51.39
2023-08-29T23:29:21.380Z,51.15
2023-08-29T23:31:48.929Z,50.83
2023-08-29T23:34:16.497Z,51.17
2023-08-29T23:36:45.629Z,51.04
2023-08-29T23:39:13.117Z,51.43
2023-08-29T23:41:40.560Z,51.42
2023-08-29T23:44:08.098Z,51.17
2023-08-29T23:46:35.611Z,50.91
2023-08-29T23:49:03.096Z,50.96
2023-08-29T23:51:30.563Z,51.05
2023-08-29T23:53:59.473Z,51.37
2023-08-29T23:56:26.965Z,51.13
2023-08-29T23:58:55.411Z,50.31
